Portada
METAR-TAF:

METAR-TAF

Aeropuertos :

Helipuerto de Algeciras

Algeciras, España

latitud: 36-07-44N, longitud: 05-26-28W, altitud: 30 m

Observación

El informe se hizo hace 11 minutos, a las 07:00 UTC
Viento 9 kt con dirección variable
Temperatura 12°C
Humedad 88%
Presión 1017 hPa
Visibilidad 10 km o más
Cielo nuboso a una altura de 1300 ft
Cielo nuboso a una altura de 1900 ft
Cielo cubierto a una altura de 4200 ft
llovizna ligera

METAR: LEAG 190700Z AUTO VRB09KT 9999 -DZ BKN013 BKN019 OVC042 12/10 Q1017

Hora: 08:11 (07:11 UTC)


TAF: falta

Observaciones y pronósticos meteorológicos de más de 4000 aeropuertos (mensajes METAR y TAF).

Los puntos amarillos y rojos representan las estaciones disponibles.

Ponga el ratón en el punto deseado para ver el nombre de la estación.

Haga clic para ver las observaciones y los pronósticos meteorológicos.

Para cambiar el mapa : haga clic en los botones verdes con una cruz de color negro para hacer un zoom, en el botón verde con un guión para alejar o en las flechas verdes para mapas adyacentes.


METAR-TAF: